createdAt,value
2022-10-23T00:00:39.890Z,87.37
2022-10-23T00:06:04.369Z,87.13
2022-10-23T00:11:28.084Z,87.01
2022-10-23T00:16:57.335Z,86.90
2022-10-23T00:22:18.155Z,86.65
2022-10-23T00:27:38.680Z,86.51
2022-10-23T00:32:59.766Z,86.54
2022-10-23T00:38:20.131Z,86.50
2022-10-23T00:44:29.433Z,86.74
2022-10-23T00:49:49.767Z,86.63
2022-10-23T00:55:11.205Z,86.80
2022-10-23T01:00:52.192Z,86.96
2022-10-23T01:06:30.370Z,87.13
2022-10-23T01:12:02.899Z,87.20
2022-10-23T01:17:47.898Z,87.41
2022-10-23T01:23:46.577Z,87.40
2022-10-23T01:29:15.124Z,87.34
2022-10-23T01:34:51.770Z,87.54
2022-10-23T01:40:31.609Z,87.44
2022-10-23T01:46:00.451Z,87.42
2022-10-23T01:51:27.256Z,87.34
2022-10-23T01:56:51.497Z,87.39
2022-10-23T02:02:18.989Z,87.31
2022-10-23T02:07:40.316Z,87.59
2022-10-23T02:13:13.133Z,87.69
2022-10-23T02:18:44.536Z,87.75
2022-10-23T02:24:15.663Z,87.85
2022-10-23T02:29:48.403Z,87.80
2022-10-23T02:35:11.146Z,88.06
2022-10-23T02:40:40.866Z,87.98
2022-10-23T02:46:21.671Z,87.98
2022-10-23T02:52:04.099Z,88.00
2022-10-23T02:57:44.769Z,87.87
2022-10-23T03:03:11.725Z,87.99
2022-10-23T03:08:59.988Z,87.98
2022-10-23T03:14:20.874Z,88.15
2022-10-23T03:19:41.529Z,88.26
2022-10-23T03:25:02.096Z,88.44
2022-10-23T03:30:25.309Z,88.52
2022-10-23T03:35:49.219Z,88.58
2022-10-23T03:41:10.439Z,88.53
2022-10-23T03:46:31.245Z,88.77
2022-10-23T03:51:52.960Z,88.85
2022-10-23T03:57:14.741Z,88.85
2022-10-23T04:02:35.566Z,88.67
2022-10-23T04:07:57.796Z,89.03
2022-10-23T04:13:19.124Z,89.14
2022-10-23T04:18:41.551Z,89.17
2022-10-23T04:24:04.125Z,89.39
2022-10-23T04:29:25.241Z,89.35
2022-10-23T04:34:46.689Z,89.28
2022-10-23T04:40:08.532Z,89.56
2022-10-23T04:45:30.972Z,89.62
2022-10-23T04:51:04.369Z,89.89
2022-10-23T04:56:47.729Z,89.84
2022-10-23T05:02:12.921Z,89.79
2022-10-23T05:07:34.738Z,89.96
2022-10-23T05:13:08.686Z,89.86
2022-10-23T05:18:34.530Z,89.75
2022-10-23T05:23:57.549Z,89.90
2022-10-23T05:29:19.060Z,90.19
2022-10-23T05:34:41.084Z,90.23
2022-10-23T05:40:05.584Z,90.22
2022-10-23T05:45:29.192Z,90.23
2022-10-23T05:51:11.525Z,90.23
2022-10-23T05:56:46.971Z,90.32
2022-10-23T06:02:24.987Z,90.30
2022-10-23T06:07:51.213Z,90.22
2022-10-23T06:13:13.914Z,90.15
2022-10-23T06:18:35.031Z,90.35
2022-10-23T06:24:02.438Z,90.26
2022-10-23T06:29:25.936Z,90.33
2022-10-23T06:34:47.531Z,90.47
2022-10-23T06:40:08.855Z,90.38
2022-10-23T06:45:52.308Z,90.33
2022-10-23T06:51:32.145Z,90.40
2022-10-23T06:56:53.276Z,90.42
2022-10-23T07:02:24.483Z,90.34
2022-10-23T07:07:45.327Z,90.29
2022-10-23T07:13:11.494Z,90.01
2022-10-23T07:18:58.756Z,89.89
2022-10-23T07:24:22.166Z,89.91
2022-10-23T07:29:43.376Z,89.58
2022-10-23T07:35:04.565Z,89.51
2022-10-23T07:40:29.543Z,89.61
2022-10-23T07:45:51.007Z,89.37
2022-10-23T07:51:23.808Z,89.06
2022-10-23T07:56:50.181Z,89.25
2022-10-23T08:02:29.878Z,88.87
2022-10-23T08:07:51.047Z,88.36
2022-10-23T08:13:13.239Z,88.62
2022-10-23T08:18:56.958Z,88.48
2022-10-23T08:24:17.976Z,88.18
2022-10-23T08:29:41.542Z,88.04
2022-10-23T08:35:02.982Z,88.00
2022-10-23T08:40:26.073Z,87.99
2022-10-23T08:46:10.829Z,87.91
2022-10-23T08:51:54.833Z,87.36
2022-10-23T08:57:18.414Z,87.39
2022-10-23T09:02:43.610Z,87.13
2022-10-23T09:08:20.396Z,86.85
2022-10-23T09:14:07.570Z,86.38
2022-10-23T09:19:29.312Z,86.26
2022-10-23T09:24:53.746Z,86.00
2022-10-23T09:30:38.403Z,85.07
2022-10-23T09:36:13.842Z,84.62
2022-10-23T09:41:39.853Z,84.17
2022-10-23T09:47:06.095Z,83.60
2022-10-23T09:52:37.317Z,83.59
2022-10-23T09:57:57.763Z,83.58
2022-10-23T10:03:23.045Z,83.11
2022-10-23T10:09:00.270Z,79.90
2022-10-23T10:14:54.948Z,78.63
2022-10-23T10:20:45.395Z,78.53
2022-10-23T10:26:34.798Z,76.99
2022-10-23T10:32:24.691Z,73.62
2022-10-23T10:37:49.535Z,71.89
2022-10-23T10:44:01.758Z,71.78
2022-10-23T10:49:42.628Z,72.45
2022-10-23T10:55:32.204Z,72.82
2022-10-23T11:00:56.913Z,73.03
2022-10-23T11:06:22.585Z,73.61
2022-10-23T11:11:43.851Z,74.65
2022-10-23T11:17:24.656Z,75.45
2022-10-23T11:23:29.733Z,76.98
2022-10-23T11:29:05.659Z,77.17
2022-10-23T11:34:44.021Z,76.55
2022-10-23T11:40:07.645Z,76.33
2022-10-23T11:45:39.983Z,75.25
2022-10-23T11:51:02.845Z,73.24
2022-10-23T11:56:27.300Z,69.18
2022-10-23T12:01:51.764Z,67.19
2022-10-23T12:07:23.773Z,65.44
2022-10-23T12:12:55.900Z,65.58
2022-10-23T12:18:17.623Z,66.29
2022-10-23T12:23:59.684Z,63.59
2022-10-23T12:29:40.874Z,66.24
2022-10-23T12:35:26.299Z,65.92
2022-10-23T12:40:53.106Z,67.69
2022-10-23T12:46:31.051Z,68.68
2022-10-23T12:52:02.451Z,67.73
2022-10-23T12:57:28.794Z,66.30
2022-10-23T13:03:03.773Z,67.68
2022-10-23T13:08:32.272Z,69.75
2022-10-23T13:14:34.483Z,69.80
2022-10-23T13:19:54.933Z,70.68
2022-10-23T13:25:35.527Z,70.39
2022-10-23T13:31:24.180Z,71.14
2022-10-23T13:36:54.738Z,71.66
2022-10-23T13:42:15.351Z,72.16
2022-10-23T13:47:35.721Z,72.46
2022-10-23T13:52:56.594Z,72.76
2022-10-23T13:58:17.069Z,73.17
2022-10-23T14:03:37.611Z,73.37
2022-10-23T14:08:58.747Z,73.91
2022-10-23T14:14:19.307Z,74.08
2022-10-23T14:19:39.673Z,74.55
2022-10-23T14:25:00.175Z,74.54
2022-10-23T14:30:21.203Z,75.07
2022-10-23T14:35:43.254Z,75.14
2022-10-23T14:41:10.326Z,75.40
2022-10-23T14:46:30.806Z,75.59
2022-10-23T14:51:51.532Z,75.64
2022-10-23T14:57:16.807Z,75.57
2022-10-23T15:02:37.431Z,75.64
2022-10-23T15:07:58.981Z,76.03
2022-10-23T15:13:19.375Z,76.18
2022-10-23T15:18:39.840Z,76.34
2022-10-23T15:24:00.756Z,77.02
2022-10-23T15:29:21.773Z,76.97
2022-10-23T15:34:42.822Z,77.15
2022-10-23T15:40:03.674Z,77.51
2022-10-23T15:45:26.628Z,77.62
2022-10-23T15:50:49.891Z,77.66
2022-10-23T15:56:10.570Z,78.00
2022-10-23T16:01:31.241Z,77.98
2022-10-23T16:06:52.150Z,78.57
2022-10-23T16:12:12.716Z,78.68
2022-10-23T16:17:33.113Z,79.16
2022-10-23T16:22:53.531Z,79.13
2022-10-23T16:28:14.379Z,79.00
2022-10-23T16:33:34.803Z,79.14
2022-10-23T16:38:55.987Z,79.28
2022-10-23T16:44:36.388Z,79.33
2022-10-23T16:49:59.558Z,79.71
2022-10-23T16:55:19.887Z,79.83
2022-10-23T17:00:40.493Z,80.01
2022-10-23T17:06:02.307Z,79.91
2022-10-23T17:11:26.816Z,80.13
2022-10-23T17:16:49.735Z,80.23
2022-10-23T17:22:12.436Z,80.62
2022-10-23T17:27:33.055Z,80.57
2022-10-23T17:32:54.433Z,81.01
2022-10-23T17:38:18.046Z,81.03
2022-10-23T17:43:39.031Z,81.20
2022-10-23T17:54:27.354Z,81.58
2022-10-23T17:59:48.217Z,81.58
2022-10-23T18:05:09.414Z,81.57
2022-10-23T18:10:30.412Z,81.69
2022-10-23T18:15:51.628Z,81.79
2022-10-23T18:21:12.184Z,82.01
2022-10-23T18:26:35.095Z,82.26
2022-10-23T18:31:55.792Z,82.39
2022-10-23T18:37:16.395Z,82.49
2022-10-23T18:42:36.995Z,82.55
2022-10-23T18:47:57.746Z,82.60
2022-10-23T18:53:18.328Z,82.79
2022-10-23T18:58:38.931Z,83.10
2022-10-23T19:04:00.972Z,83.06
2022-10-23T19:09:21.632Z,83.27
2022-10-23T19:14:42.265Z,83.30
2022-10-23T19:20:10.845Z,83.38
2022-10-23T19:25:33.740Z,83.32
2022-10-23T19:30:54.162Z,83.08
2022-10-23T19:36:15.051Z,83.24
2022-10-23T19:41:39.859Z,83.07
2022-10-23T19:47:00.573Z,83.43
2022-10-23T19:52:22.704Z,83.30
2022-10-23T19:57:43.735Z,83.75
2022-10-23T20:03:04.286Z,83.85
2022-10-23T20:08:24.819Z,83.60
2022-10-23T20:13:45.296Z,84.02
2022-10-23T20:19:09.076Z,84.01
2022-10-23T20:24:30.523Z,84.20
2022-10-23T20:29:51.145Z,84.01
2022-10-23T20:35:11.580Z,84.16
2022-10-23T20:40:33.613Z,84.13
2022-10-23T20:45:54.300Z,83.82
2022-10-23T20:51:17.842Z,83.73
2022-10-23T20:56:39.544Z,83.88
2022-10-23T21:02:00.034Z,83.77
2022-10-23T21:07:21.140Z,83.93
2022-10-23T21:12:42.280Z,83.47
2022-10-23T21:18:13.142Z,83.59
2022-10-23T21:23:43.763Z,83.46
2022-10-23T21:29:17.860Z,83.49
2022-10-23T21:34:39.124Z,83.60
2022-10-23T21:39:59.870Z,83.63
2022-10-23T21:45:20.648Z,83.64
2022-10-23T21:50:41.037Z,83.51
2022-10-23T21:56:05.168Z,83.80
2022-10-23T22:01:53.242Z,83.81
2022-10-23T22:07:15.166Z,83.85
2022-10-23T22:12:36.041Z,84.00
2022-10-23T22:17:59.095Z,83.62
2022-10-23T22:23:19.607Z,83.95
2022-10-23T22:28:39.904Z,83.96
2022-10-23T22:34:13.147Z,83.98
2022-10-23T22:39:43.219Z,83.66
2022-10-23T22:45:03.909Z,83.88
2022-10-23T22:50:24.466Z,84.31
2022-10-23T22:55:45.471Z,84.10
2022-10-23T23:01:08.620Z,84.04
2022-10-23T23:06:29.300Z,84.00
2022-10-23T23:11:53.002Z,84.27
2022-10-23T23:17:13.920Z,84.43
2022-10-23T23:22:34.654Z,84.60
2022-10-23T23:27:55.133Z,84.58
2022-10-23T23:33:19.172Z,84.38
2022-10-23T23:38:39.909Z,84.48
2022-10-23T23:44:00.700Z,84.17
2022-10-23T23:49:21.943Z,84.58
2022-10-23T23:54:43.835Z,84.69
